Time;durP1;ratioP1;P1;durP2;ratioP2;P2;SDS_P1;SDS_P2;PMS_P1;PMS_P2;Temp;Humidity;BMP_temperature;BMP_pressure;BME280_temperature;BME280_humidity;BME280_pressure;Samples;Min_cycle;Max_cycle;Signal;HPM_P1;HPM_P2
2022/05/16 00:01:56;;;;;;;4.07;1.92;;;;;;;;;;4951404;28;20545;-62
2022/05/16 00:04:21;;;;;;;3.17;1.52;;;;;;;;;;4950956;28;20601;-62
2022/05/16 00:06:47;;;;;;;4.25;1.73;;;;;;;;;;4951161;28;20437;-62
2022/05/16 00:09:12;;;;;;;3.83;1.55;;;;;;;;;;4951118;28;20385;-62
2022/05/16 00:11:38;;;;;;;5.05;1.60;;;;;;;;;;4951109;28;20484;-63
2022/05/16 00:14:04;;;;;;;2.40;1.58;;;;;;;;;;4950705;28;20427;-62
2022/05/16 00:16:29;;;;;;;4.53;1.58;;;;;;;;;;4951125;28;20377;-63
2022/05/16 00:18:54;;;;;;;4.00;2.00;;;;;;;;;;4951690;28;20121;-63
2022/05/16 00:21:20;;;;;;;5.20;1.83;;;;;;;;;;4950515;28;20558;-63
2022/05/16 00:23:46;;;;;;;3.15;1.42;;;;;;;;;;4951171;28;20429;-61
2022/05/16 00:26:11;;;;;;;4.63;1.75;;;;;;;;;;4950942;28;20366;-61
2022/05/16 00:28:36;;;;;;;4.40;1.73;;;;;;;;;;4951115;28;20495;-63
2022/05/16 00:31:03;;;;;;;4.95;1.58;;;;;;;;;;4950575;28;20034;-63
2022/05/16 00:33:29;;;;;;;2.97;1.63;;;;;;;;;;4950819;28;20409;-62
2022/05/16 00:35:54;;;;;;;8.90;2.22;;;;;;;;;;4950356;28;20477;-62
2022/05/16 00:38:19;;;;;;;5.63;1.92;;;;;;;;;;4950650;28;20460;-63
2022/05/16 00:40:44;;;;;;;3.55;1.95;;;;;;;;;;4932996;28;20462;-62
2022/05/16 00:43:11;;;;;;;3.13;1.80;;;;;;;;;;4951516;28;20449;-63
2022/05/16 00:45:38;;;;;;;3.40;2.03;;;;;;;;;;4951376;28;20429;-62
2022/05/16 00:48:04;;;;;;;3.38;1.50;;;;;;;;;;4950999;28;20065;-62
2022/05/16 00:50:31;;;;;;;4.45;1.83;;;;;;;;;;4950476;28;20049;-63
2022/05/16 00:52:56;;;;;;;5.38;2.22;;;;;;;;;;4950577;28;20421;-62
2022/05/16 00:55:27;;;;;;;3.35;1.70;;;;;;;;;;4932432;28;20448;-61
2022/05/16 00:57:56;;;;;;;10.15;2.08;;;;;;;;;;4932872;28;20494;-62
2022/05/16 01:00:34;;;;;;;4.50;1.57;;;;;;;;;;4947456;28;20365;-62
2022/05/16 01:05:47;;;;;;;3.90;1.80;;;;;;;;;;4952366;28;20349;-62
2022/05/16 01:08:15;;;;;;;3.30;1.52;;;;;;;;;;4951190;28;20616;-63
2022/05/16 01:10:41;;;;;;;5.82;1.95;;;;;;;;;;4950126;28;20604;-62
2022/05/16 01:13:07;;;;;;;4.65;2.00;;;;;;;;;;4950000;28;20332;-62
2022/05/16 01:15:40;;;;;;;4.25;1.92;;;;;;;;;;4950831;28;20417;-62
2022/05/16 01:18:07;;;;;;;3.75;1.85;;;;;;;;;;4950150;28;20324;-63
2022/05/16 01:21:06;;;;;;;4.68;1.73;;;;;;;;;;4950585;28;20345;-62
2022/05/16 01:23:36;;;;;;;4.15;1.70;;;;;;;;;;4965176;28;20462;-62
2022/05/16 01:26:05;;;;;;;3.55;1.80;;;;;;;;;;4949967;28;20441;-62
2022/05/16 01:28:30;;;;;;;3.10;1.60;;;;;;;;;;4964601;28;20369;-62
2022/05/16 01:30:55;;;;;;;3.30;1.75;;;;;;;;;;4949413;28;20038;-61
2022/05/16 01:33:25;;;;;;;6.10;1.80;;;;;;;;;;4949575;28;20535;-62
2022/05/16 01:35:50;;;;;;;5.18;1.80;;;;;;;;;;4949696;28;20473;-63
2022/05/16 01:38:21;;;;;;;8.38;2.00;;;;;;;;;;4949669;28;20405;-63
2022/05/16 01:40:53;;;;;;;4.15;1.88;;;;;;;;;;4950589;28;20331;-62
2022/05/16 01:43:21;;;;;;;4.60;1.35;;;;;;;;;;4949838;28;20471;-62
2022/05/16 01:45:47;;;;;;;3.17;1.65;;;;;;;;;;4949719;28;20313;-63
2022/05/16 01:48:14;;;;;;;4.45;1.77;;;;;;;;;;4950327;28;20432;-62
2022/05/16 01:50:40;;;;;;;6.15;1.98;;;;;;;;;;4949965;28;20392;-62
2022/05/16 01:53:06;;;;;;;3.03;1.65;;;;;;;;;;4949581;28;20441;-61
2022/05/16 01:55:31;;;;;;;4.10;1.75;;;;;;;;;;4963771;28;20472;-63
2022/05/16 01:57:57;;;;;;;3.97;1.70;;;;;;;;;;4949726;28;20026;-62
2022/05/16 02:00:22;;;;;;;2.47;1.40;;;;;;;;;;4949466;28;20401;-62
2022/05/16 02:02:47;;;;;;;3.25;1.60;;;;;;;;;;4949892;28;20520;-62
2022/05/16 02:05:19;;;;;;;5.85;2.30;;;;;;;;;;4949289;28;20445;-62
2022/05/16 02:07:45;;;;;;;3.78;1.48;;;;;;;;;;4948047;28;20348;-62
2022/05/16 02:10:11;;;;;;;2.25;1.33;;;;;;;;;;4949154;28;20341;-63
2022/05/16 02:12:36;;;;;;;3.35;1.83;;;;;;;;;;4949404;28;20456;-61
2022/05/16 02:15:05;;;;;;;3.00;1.58;;;;;;;;;;4949525;28;20378;-63
2022/05/16 02:17:30;;;;;;;3.30;1.95;;;;;;;;;;4949842;28;20373;-62
2022/05/16 02:19:55;;;;;;;2.40;1.35;;;;;;;;;;4948125;28;20342;-62
2022/05/16 02:25:05;;;;;;;3.95;1.60;;;;;;;;;;4950440;28;20065;-62
2022/05/16 02:27:31;;;;;;;4.25;1.70;;;;;;;;;;4949127;28;20025;-63
2022/05/16 02:29:57;;;;;;;3.70;1.52;;;;;;;;;;4949070;28;20081;-62
2022/05/16 02:32:22;;;;;;;4.60;1.80;;;;;;;;;;4949773;28;20157;-61
2022/05/16 02:34:48;;;;;;;4.65;1.88;;;;;;;;;;4948950;28;20428;-62
2022/05/16 02:37:13;;;;;;;3.97;1.95;;;;;;;;;;4949685;28;20404;-62
2022/05/16 02:39:39;;;;;;;4.97;1.40;;;;;;;;;;4949221;28;20093;-62
2022/05/16 02:42:04;;;;;;;3.60;1.55;;;;;;;;;;4949277;28;20045;-63
2022/05/16 02:44:29;;;;;;;3.28;1.50;;;;;;;;;;4949361;28;20455;-62
2022/05/16 02:46:55;;;;;;;2.95;1.60;;;;;;;;;;4949300;28;20474;-62
2022/05/16 02:49:23;;;;;;;3.03;1.20;;;;;;;;;;4949338;28;20445;-63
2022/05/16 02:51:49;;;;;;;3.83;1.60;;;;;;;;;;4950367;28;20364;-63
2022/05/16 02:54:14;;;;;;;3.05;1.50;;;;;;;;;;4949039;28;20054;-61
2022/05/16 02:56:39;;;;;;;5.22;1.90;;;;;;;;;;4950608;28;20405;-62
2022/05/16 02:59:05;;;;;;;7.03;1.58;;;;;;;;;;4952234;28;20488;-63
2022/05/16 03:01:34;;;;;;;6.38;1.63;;;;;;;;;;4952385;28;20378;-62
2022/05/16 03:03:59;;;;;;;3.95;1.77;;;;;;;;;;4953953;28;20348;-62
2022/05/16 03:06:24;;;;;;;6.03;1.63;;;;;;;;;;4952143;28;20345;-61
2022/05/16 03:08:50;;;;;;;5.82;1.75;;;;;;;;;;4952393;28;20441;-63
2022/05/16 03:11:15;;;;;;;2.67;1.40;;;;;;;;;;4952957;28;20356;-61
2022/05/16 03:13:40;;;;;;;2.92;1.58;;;;;;;;;;4953739;28;20100;-62
2022/05/16 03:16:06;;;;;;;2.80;1.60;;;;;;;;;;4952392;28;20536;-63
2022/05/16 03:18:31;;;;;;;4.35;1.42;;;;;;;;;;4953442;28;20420;-61
2022/05/16 03:20:58;;;;;;;4.20;1.83;;;;;;;;;;4951265;28;20595;-62
2022/05/16 03:23:24;;;;;;;3.33;1.42;;;;;;;;;;4952460;28;20383;-62
2022/05/16 03:25:49;;;;;;;3.47;1.50;;;;;;;;;;4952654;28;20502;-62
2022/05/16 03:28:15;;;;;;;2.38;1.23;;;;;;;;;;4952188;28;20365;-63
2022/05/16 03:30:41;;;;;;;4.00;1.60;;;;;;;;;;4952021;28;20558;-62
2022/05/16 03:33:08;;;;;;;7.57;1.98;;;;;;;;;;4952168;28;20359;-62
2022/05/16 03:35:34;;;;;;;2.53;1.40;;;;;;;;;;4952300;28;20480;-61
2022/05/16 03:38:00;;;;;;;4.15;1.92;;;;;;;;;;4951761;28;20434;-62
2022/05/16 03:40:45;;;;;;;3.47;1.92;;;;;;;;;;4951622;28;20507;-62
2022/05/16 03:43:14;;;;;;;3.03;1.52;;;;;;;;;;4952352;28;20404;-62
2022/05/16 03:45:41;;;;;;;2.60;1.50;;;;;;;;;;4952396;28;20507;-62
2022/05/16 03:48:07;;;;;;;3.53;1.77;;;;;;;;;;4951772;28;20341;-63
2022/05/16 03:50:32;;;;;;;2.75;1.63;;;;;;;;;;4952422;28;20340;-63
2022/05/16 03:52:59;;;;;;;4.60;1.73;;;;;;;;;;4951422;28;20396;-62
2022/05/16 03:55:26;;;;;;;3.35;1.38;;;;;;;;;;4951221;28;20368;-62
2022/05/16 03:57:52;;;;;;;4.82;1.80;;;;;;;;;;4951202;28;20543;-62
2022/05/16 04:00:17;;;;;;;3.42;1.00;;;;;;;;;;4951354;28;20121;-62
2022/05/16 04:02:43;;;;;;;4.07;1.50;;;;;;;;;;4952930;28;20040;-63
2022/05/16 04:05:10;;;;;;;2.03;1.30;;;;;;;;;;4953199;28;20034;-62
2022/05/16 04:07:36;;;;;;;3.60;1.48;;;;;;;;;;4950189;28;20018;-63
2022/05/16 04:10:02;;;;;;;3.35;1.35;;;;;;;;;;4951543;28;20607;-62
2022/05/16 04:12:28;;;;;;;3.22;1.52;;;;;;;;;;4951028;28;20448;-63
2022/05/16 04:14:53;;;;;;;3.80;1.23;;;;;;;;;;4950797;28;20437;-61
2022/05/16 04:17:19;;;;;;;2.42;1.10;;;;;;;;;;4951855;28;20511;-61
2022/05/16 04:19:45;;;;;;;5.35;1.50;;;;;;;;;;4950943;28;20357;-62
2022/05/16 04:22:11;;;;;;;1.95;1.33;;;;;;;;;;4951995;28;20137;-62
2022/05/16 04:24:37;;;;;;;2.13;1.23;;;;;;;;;;4950828;28;20073;-62
2022/05/16 04:27:02;;;;;;;3.50;1.40;;;;;;;;;;4951730;28;20037;-62
2022/05/16 04:29:27;;;;;;;1.60;1.10;;;;;;;;;;4950493;28;20367;-62
2022/05/16 04:31:53;;;;;;;3.70;1.50;;;;;;;;;;4951820;28;20412;-63
2022/05/16 04:34:18;;;;;;;5.75;1.38;;;;;;;;;;4950886;28;20582;-62
2022/05/16 04:36:44;;;;;;;3.08;1.45;;;;;;;;;;4950913;28;20320;-63
2022/05/16 04:39:09;;;;;;;1.98;1.23;;;;;;;;;;4950889;28;20135;-64
2022/05/16 04:44:19;;;;;;;3.22;1.42;;;;;;;;;;4950677;28;20148;-63
2022/05/16 04:46:44;;;;;;;3.25;1.52;;;;;;;;;;4950573;28;20037;-62
2022/05/16 04:49:10;;;;;;;2.70;1.45;;;;;;;;;;4950533;28;20357;-62
2022/05/16 04:51:35;;;;;;;3.42;1.25;;;;;;;;;;4950231;28;20543;-62
2022/05/16 04:54:00;;;;;;;1.95;1.20;;;;;;;;;;4950334;28;20524;-63
2022/05/16 04:56:26;;;;;;;2.80;1.27;;;;;;;;;;4950622;28;20448;-61
2022/05/16 04:58:51;;;;;;;2.63;1.30;;;;;;;;;;4951739;28;20429;-62
2022/05/16 05:01:18;;;;;;;3.50;1.63;;;;;;;;;;4950039;28;20182;-62
2022/05/16 05:03:43;;;;;;;2.58;1.20;;;;;;;;;;4950256;28;20528;-62
2022/05/16 05:06:08;;;;;;;3.65;1.00;;;;;;;;;;4949798;28;20330;-62
2022/05/16 05:08:34;;;;;;;2.80;0.90;;;;;;;;;;4950431;28;20500;-62
2022/05/16 05:16:28;;;;;;;2.80;1.23;;;;;;;;;;4949712;28;20463;-62
2022/05/16 05:18:53;;;;;;;2.45;1.25;;;;;;;;;;4950620;28;20401;-61
2022/05/16 05:21:19;;;;;;;1.88;1.20;;;;;;;;;;4949802;28;20448;-61
2022/05/16 05:23:45;;;;;;;2.97;1.05;;;;;;;;;;4950618;28;20425;-62
2022/05/16 05:26:11;;;;;;;1.60;1.05;;;;;;;;;;4950254;28;20425;-62
2022/05/16 05:28:37;;;;;;;2.38;1.08;;;;;;;;;;4949892;28;20025;-62
2022/05/16 05:31:02;;;;;;;2.10;1.25;;;;;;;;;;4950963;28;20413;-61
2022/05/16 05:33:28;;;;;;;3.75;1.75;;;;;;;;;;4950944;28;20333;-62
2022/05/16 05:35:53;;;;;;;2.22;1.17;;;;;;;;;;4950124;28;20436;-62
2022/05/16 05:38:19;;;;;;;2.30;1.30;;;;;;;;;;4950179;28;20544;-62
2022/05/16 05:40:45;;;;;;;2.47;1.23;;;;;;;;;;4951590;28;20033;-61
2022/05/16 05:43:11;;;;;;;2.50;1.27;;;;;;;;;;4949443;28;20500;-61
2022/05/16 05:45:36;;;;;;;2.53;1.20;;;;;;;;;;4949658;28;20479;-63
2022/05/16 05:48:02;;;;;;;1.90;1.00;;;;;;;;;;4949522;28;20113;-62
2022/05/16 05:50:28;;;;;;;1.83;1.02;;;;;;;;;;4951138;28;20540;-62
2022/05/16 05:52:53;;;;;;;3.70;0.90;;;;;;;;;;4949963;28;20424;-62
2022/05/16 05:55:20;;;;;;;2.25;1.15;;;;;;;;;;4949522;28;20176;-61
2022/05/16 05:57:45;;;;;;;2.72;1.17;;;;;;;;;;4949640;28;20425;-62
2022/05/16 06:00:12;;;;;;;1.98;1.15;;;;;;;;;;4949278;28;20436;-62
2022/05/16 06:02:40;;;;;;;1.67;1.00;;;;;;;;;;4949790;28;20022;-62
2022/05/16 06:05:07;;;;;;;2.50;1.40;;;;;;;;;;4949358;28;20409;-64
2022/05/16 06:07:32;;;;;;;4.35;1.02;;;;;;;;;;4931816;28;20365;-62
2022/05/16 06:09:58;;;;;;;1.85;1.13;;;;;;;;;;4949528;28;20360;-63
2022/05/16 06:12:23;;;;;;;2.00;1.00;;;;;;;;;;4949575;28;20034;-62
2022/05/16 06:14:48;;;;;;;3.45;1.30;;;;;;;;;;4949318;28;20437;-62
2022/05/16 06:17:14;;;;;;;2.35;1.02;;;;;;;;;;4949459;28;20445;-62
2022/05/16 06:19:39;;;;;;;1.75;1.15;;;;;;;;;;4948680;28;20536;-62
2022/05/16 06:22:05;;;;;;;2.13;1.00;;;;;;;;;;4949258;28;20367;-62
2022/05/16 06:27:14;;;;;;;1.83;1.00;;;;;;;;;;4950141;28;20061;-62
2022/05/16 06:29:39;;;;;;;1.85;1.00;;;;;;;;;;4950947;28;20491;-62
2022/05/16 06:32:05;;;;;;;1.52;0.90;;;;;;;;;;4952689;28;20425;-62
2022/05/16 06:34:31;;;;;;;2.08;1.10;;;;;;;;;;4953434;28;20389;-62
2022/05/16 06:36:56;;;;;;;2.97;1.05;;;;;;;;;;4953202;28;20353;-62
2022/05/16 06:39:21;;;;;;;1.77;0.98;;;;;;;;;;4953040;28;20476;-63
2022/05/16 06:41:47;;;;;;;1.70;1.20;;;;;;;;;;4952842;28;20433;-62
2022/05/16 06:44:14;;;;;;;2.42;1.20;;;;;;;;;;4952706;28;20479;-63
2022/05/16 06:46:41;;;;;;;2.83;1.10;;;;;;;;;;4953050;28;20437;-62
2022/05/16 06:49:06;;;;;;;2.17;1.00;;;;;;;;;;4952535;28;20095;-63
2022/05/16 06:51:31;;;;;;;2.00;1.00;;;;;;;;;;4952819;28;20034;-61
2022/05/16 06:53:57;;;;;;;1.50;0.93;;;;;;;;;;4952628;28;20487;-62
2022/05/16 06:56:22;;;;;;;2.40;1.20;;;;;;;;;;4952485;28;20104;-61
2022/05/16 06:58:47;;;;;;;2.65;1.20;;;;;;;;;;4952455;28;20029;-61
2022/05/16 07:01:13;;;;;;;3.75;1.30;;;;;;;;;;4953547;28;20484;-62
2022/05/16 07:03:40;;;;;;;2.13;1.20;;;;;;;;;;4952208;28;20340;-63
2022/05/16 07:06:06;;;;;;;1.55;0.85;;;;;;;;;;4954153;28;20447;-63
2022/05/16 07:08:31;;;;;;;2.38;1.20;;;;;;;;;;4952508;28;20421;-62
2022/05/16 07:10:57;;;;;;;1.42;1.00;;;;;;;;;;4952641;28;20346;-61
2022/05/16 07:13:26;;;;;;;2.05;1.05;;;;;;;;;;4952805;28;20056;-62
2022/05/16 07:15:52;;;;;;;2.08;1.10;;;;;;;;;;4953885;28;20431;-62
2022/05/16 07:18:17;;;;;;;2.20;1.15;;;;;;;;;;4952874;28;20432;-62
2022/05/16 07:20:42;;;;;;;1.85;1.13;;;;;;;;;;4951925;28;20384;-62
2022/05/16 07:23:09;;;;;;;2.38;1.05;;;;;;;;;;4952383;28;20375;-63
2022/05/16 07:27:56;;;;;;;2.05;0.73;;;;;;;;;;4951936;28;20329;-63
2022/05/16 07:28:20;;;;;;;2.85;1.25;;;;;;;;;;4951977;28;20034;-61
2022/05/16 07:30:46;;;;;;;1.42;0.90;;;;;;;;;;4952113;28;20448;-62
2022/05/16 07:33:12;;;;;;;2.40;1.00;;;;;;;;;;4952102;28;20088;-62
2022/05/16 07:35:38;;;;;;;1.35;0.88;;;;;;;;;;4952148;28;20034;-62
2022/05/16 07:38:04;;;;;;;2.40;1.10;;;;;;;;;;4951978;28;20053;-62
2022/05/16 07:40:32;;;;;;;2.95;1.10;;;;;;;;;;4951543;28;20034;-65
2022/05/16 07:42:58;;;;;;;3.13;1.20;;;;;;;;;;4951691;28;20424;-62
2022/05/16 07:45:24;;;;;;;2.03;1.10;;;;;;;;;;4951861;28;20437;-62
2022/05/16 07:47:49;;;;;;;1.45;1.05;;;;;;;;;;4951520;28;20432;-61
2022/05/16 07:50:15;;;;;;;1.33;1.10;;;;;;;;;;4951643;28;20448;-62
2022/05/16 07:52:45;;;;;;;2.03;1.15;;;;;;;;;;4951696;28;20357;-63
2022/05/16 07:55:11;;;;;;;1.90;0.85;;;;;;;;;;4951123;28;20056;-62
2022/05/16 07:57:36;;;;;;;2.53;1.08;;;;;;;;;;4951991;28;20038;-62
2022/05/16 08:00:03;;;;;;;2.13;1.17;;;;;;;;;;4951360;28;20380;-61
2022/05/16 08:02:28;;;;;;;2.28;1.10;;;;;;;;;;4951436;28;20360;-62
2022/05/16 08:04:53;;;;;;;1.60;0.90;;;;;;;;;;4951140;28;20053;-63
2022/05/16 08:07:19;;;;;;;3.33;1.05;;;;;;;;;;4951615;28;20401;-61
2022/05/16 08:12:31;;;;;;;1.58;0.85;;;;;;;;;;4951420;28;20348;-62
2022/05/16 08:14:57;;;;;;;2.55;1.30;;;;;;;;;;4951909;28;20298;-62
2022/05/16 08:17:22;;;;;;;2.83;0.95;;;;;;;;;;4951536;28;20057;-64
2022/05/16 08:19:48;;;;;;;1.70;1.10;;;;;;;;;;4951793;28;20429;-62
2022/05/16 08:22:14;;;;;;;2.47;1.02;;;;;;;;;;4965736;28;20376;-62
2022/05/16 08:24:40;;;;;;;1.40;0.80;;;;;;;;;;4951324;28;20352;-62
2022/05/16 08:27:05;;;;;;;1.83;0.93;;;;;;;;;;4950903;28;20113;-62
2022/05/16 08:29:30;;;;;;;2.28;1.00;;;;;;;;;;4933441;28;20436;-62
2022/05/16 08:31:56;;;;;;;1.45;0.82;;;;;;;;;;4950501;28;20446;-62
2022/05/16 08:34:22;;;;;;;1.48;0.90;;;;;;;;;;4950903;28;20321;-63
2022/05/16 08:42:16;;;;;;;1.65;1.00;;;;;;;;;;4953041;28;20448;-62
2022/05/16 08:45:03;;;;;;;0.80;0.70;;;;;;;;;;4950552;28;20531;-62
2022/05/16 08:47:47;;;;;;;3.30;1.10;;;;;;;;;;4950933;28;20341;-62
2022/05/16 08:50:18;;;;;;;1.23;0.93;;;;;;;;;;4950197;28;20333;-63
2022/05/16 08:53:02;;;;;;;1.30;0.77;;;;;;;;;;4965405;28;20359;-62
2022/05/16 08:55:49;;;;;;;1.60;1.20;;;;;;;;;;4950046;28;20515;-62
2022/05/16 08:58:37;;;;;;;2.30;0.90;;;;;;;;;;4966027;28;20380;-62
2022/05/16 09:01:07;;;;;;;2.40;0.90;;;;;;;;;;4966030;28;20405;-62
2022/05/16 09:03:47;;;;;;;1.15;0.77;;;;;;;;;;4965037;28;20444;-62
2022/05/16 09:06:21;;;;;;;1.10;0.73;;;;;;;;;;4950599;28;20471;-62
2022/05/16 09:09:03;;;;;;;1.00;0.68;;;;;;;;;;4965032;28;20410;-61
2022/05/16 09:11:47;;;;;;;1.08;0.73;;;;;;;;;;4951664;28;20448;-62
2022/05/16 09:14:26;;;;;;;4.53;0.80;;;;;;;;;;4951043;28;20333;-61
2022/05/16 09:17:00;;;;;;;2.22;0.80;;;;;;;;;;4949937;28;20483;-62
2022/05/16 09:19:51;;;;;;;1.73;1.10;;;;;;;;;;4950738;28;20480;-62
2022/05/16 09:22:38;;;;;;;1.55;0.80;;;;;;;;;;4931091;28;20643;-61
2022/05/16 09:25:07;;;;;;;2.10;0.98;;;;;;;;;;4929442;28;20326;-62
2022/05/16 09:30:28;;;;;;;2.17;0.88;;;;;;;;;;4930363;28;20369;-62
2022/05/16 09:33:01;;;;;;;1.23;0.80;;;;;;;;;;4930853;28;20367;-63
2022/05/16 09:35:56;;;;;;;2.28;0.98;;;;;;;;;;4912526;28;20591;-62
2022/05/16 09:38:22;;;;;;;0.80;0.63;;;;;;;;;;4929679;28;20521;-62
2022/05/16 09:41:00;;;;;;;3.03;0.93;;;;;;;;;;4949978;28;20445;-62
2022/05/16 09:43:31;;;;;;;2.25;1.10;;;;;;;;;;4950174;28;20037;-62
2022/05/16 09:46:01;;;;;;;2.35;0.90;;;;;;;;;;4949769;28;20100;-62
2022/05/16 09:48:26;;;;;;;1.38;1.00;;;;;;;;;;4932257;28;20364;-61
2022/05/16 09:51:09;;;;;;;1.67;1.05;;;;;;;;;;4950200;28;20053;-62
2022/05/16 09:53:41;;;;;;;1.27;0.68;;;;;;;;;;4949870;28;20376;-63
2022/05/16 09:56:16;;;;;;;1.25;0.80;;;;;;;;;;4949921;28;20353;-62
2022/05/16 09:58:50;;;;;;;1.38;0.90;;;;;;;;;;4933223;28;20429;-61
2022/05/16 10:01:33;;;;;;;2.50;0.75;;;;;;;;;;4949210;28;20496;-62
2022/05/16 10:04:10;;;;;;;1.35;0.88;;;;;;;;;;4949494;28;20396;-62
2022/05/16 10:06:37;;;;;;;1.85;0.90;;;;;;;;;;4950932;28;20492;-62
2022/05/16 10:09:05;;;;;;;1.65;0.88;;;;;;;;;;4953406;28;20455;-62
2022/05/16 10:11:32;;;;;;;1.30;0.82;;;;;;;;;;4953875;28;20460;-62
2022/05/16 10:13:57;;;;;;;0.75;0.50;;;;;;;;;;4953207;28;20479;-62
2022/05/16 10:16:26;;;;;;;1.02;0.90;;;;;;;;;;4953271;28;20334;-62
2022/05/16 10:18:58;;;;;;;1.65;0.80;;;;;;;;;;4936033;28;20373;-61
2022/05/16 10:21:27;;;;;;;1.55;0.82;;;;;;;;;;4953047;28;20069;-62
2022/05/16 10:23:53;;;;;;;1.73;0.60;;;;;;;;;;4968984;28;20332;-62
2022/05/16 10:26:23;;;;;;;1.25;0.63;;;;;;;;;;4953269;28;20353;-62
2022/05/16 10:28:54;;;;;;;1.50;0.85;;;;;;;;;;4967995;28;20365;-61
2022/05/16 10:34:20;;;;;;;2.93;1.00;;;;;;;;;;4966383;28;20380;-61
2022/05/16 10:36:48;;;;;;;2.00;1.48;;;;;;;;;;4967592;28;20092;-62
2022/05/16 10:39:21;;;;;;;0.95;0.73;;;;;;;;;;4953069;28;20060;-63
2022/05/16 10:42:11;;;;;;;1.15;0.60;;;;;;;;;;4967521;28;20389;-63
2022/05/16 10:44:46;;;;;;;0.93;0.70;;;;;;;;;;4953064;28;20298;-62
2022/05/16 10:47:37;;;;;;;1.08;0.65;;;;;;;;;;4967728;28;20476;-62
2022/05/16 10:50:21;;;;;;;0.75;0.57;;;;;;;;;;4953931;28;20468;-62
2022/05/16 10:52:58;;;;;;;1.73;0.77;;;;;;;;;;4953893;28;20322;-62
2022/05/16 10:55:23;;;;;;;2.33;0.70;;;;;;;;;;4953636;28;20405;-62
2022/05/16 10:58:15;;;;;;;0.70;0.65;;;;;;;;;;4967357;28;20503;-61
2022/05/16 11:01:01;;;;;;;1.45;0.70;;;;;;;;;;4952613;28;20120;-62
2022/05/16 11:04:04;;;;;;;2.15;0.60;;;;;;;;;;4967676;28;20463;-62
2022/05/16 11:07:07;;;;;;;1.85;0.60;;;;;;;;;;4952451;28;20388;-62
2022/05/16 11:09:41;;;;;;;1.15;0.60;;;;;;;;;;4952296;28;20428;-62
2022/05/16 11:12:14;;;;;;;1.15;0.60;;;;;;;;;;4953153;28;20452;-61
2022/05/16 11:14:47;;;;;;;1.05;0.55;;;;;;;;;;4952456;28;20413;-61
2022/05/16 11:17:25;;;;;;;1.15;0.77;;;;;;;;;;4952397;28;20642;-62
2022/05/16 11:19:56;;;;;;;1.00;0.55;;;;;;;;;;4967147;28;20405;-62
2022/05/16 11:22:30;;;;;;;0.82;0.60;;;;;;;;;;4967243;28;20497;-62
2022/05/16 11:25:02;;;;;;;1.40;0.70;;;;;;;;;;4951878;28;20448;-62
2022/05/16 11:27:48;;;;;;;0.55;0.50;;;;;;;;;;4951955;28;20412;-62
2022/05/16 11:30:33;;;;;;;1.75;0.60;;;;;;;;;;4952234;28;20443;-62
2022/05/16 11:33:23;;;;;;;1.50;0.40;;;;;;;;;;4967062;28;20393;-62
2022/05/16 11:35:51;;;;;;;1.10;0.57;;;;;;;;;;4952937;28;20516;-61
2022/05/16 11:38:26;;;;;;;0.73;0.47;;;;;;;;;;4952830;28;20401;-63
2022/05/16 11:41:16;;;;;;;1.55;0.80;;;;;;;;;;4951736;28;20484;-62
2022/05/16 11:43:46;;;;;;;1.63;0.40;;;;;;;;;;4951571;28;20475;-62
2022/05/16 11:46:27;;;;;;;1.13;0.40;;;;;;;;;;4953399;28;20053;-61
2022/05/16 11:49:14;;;;;;;1.38;0.57;;;;;;;;;;4951359;28;20393;-62
2022/05/16 11:52:17;;;;;;;0.43;0.40;;;;;;;;;;4951894;28;20341;-62
2022/05/16 11:54:50;;;;;;;1.15;0.50;;;;;;;;;;4951456;28;20441;-62
2022/05/16 12:02:50;;;;;;;0.73;0.40;;;;;;;;;;4951681;28;20034;-62
2022/05/16 12:05:36;;;;;;;1.15;0.47;;;;;;;;;;4952194;28;20429;-63
2022/05/16 12:08:15;;;;;;;1.23;0.88;;;;;;;;;;4930375;28;20445;-62
2022/05/16 12:10:59;;;;;;;0.63;0.45;;;;;;;;;;4949957;28;20352;-61
2022/05/16 12:13:28;;;;;;;1.20;0.93;;;;;;;;;;4951427;28;20444;-62
2022/05/16 12:16:18;;;;;;;1.55;0.90;;;;;;;;;;4950907;28;20568;-62
2022/05/16 12:18:49;;;;;;;1.15;0.75;;;;;;;;;;4952575;28;20444;-62
2022/05/16 12:21:20;;;;;;;0.80;0.70;;;;;;;;;;4965953;28;20045;-62
2022/05/16 12:23:51;;;;;;;0.88;0.65;;;;;;;;;;4952597;28;20368;-62
2022/05/16 12:26:26;;;;;;;0.95;0.77;;;;;;;;;;4952310;28;20464;-62
2022/05/16 12:29:09;;;;;;;0.95;0.60;;;;;;;;;;4950855;28;20357;-62
2022/05/16 12:31:50;;;;;;;1.25;0.80;;;;;;;;;;4952621;28;20425;-62
2022/05/16 12:34:41;;;;;;;3.40;1.10;;;;;;;;;;4950943;28;20591;-63
2022/05/16 12:37:10;;;;;;;1.15;0.77;;;;;;;;;;4944863;28;20429;-62
2022/05/16 12:39:43;;;;;;;;;;;;;;;;;;4952051;28;20030;-62
2022/05/16 12:42:27;;;;;;;1.48;0.80;;;;;;;;;;4950855;28;20362;-62
2022/05/16 12:44:55;;;;;;;1.25;1.00;;;;;;;;;;4965385;28;20531;-63
2022/05/16 12:47:50;;;;;;;0.80;0.70;;;;;;;;;;4951059;28;20519;-62
2022/05/16 12:50:40;;;;;;;1.10;0.77;;;;;;;;;;4950682;28;20181;-62
2022/05/16 12:53:26;;;;;;;1.20;0.70;;;;;;;;;;4950411;28;20464;-62
2022/05/16 12:56:10;;;;;;;1.17;0.82;;;;;;;;;;4965167;28;20456;-63
2022/05/16 12:58:48;;;;;;;1.20;0.70;;;;;;;;;;4951102;28;20344;-63
2022/05/16 13:01:27;;;;;;;3.47;1.00;;;;;;;;;;4965701;28;20341;-63
2022/05/16 13:03:56;;;;;;;;;;;;;;;;;;4952031;28;20425;-63
2022/05/16 13:06:33;;;;;;;1.65;0.98;;;;;;;;;;4933447;28;20343;-62
2022/05/16 13:09:14;;;;;;;1.00;0.70;;;;;;;;;;4950250;28;20429;-62
2022/05/16 13:11:43;;;;;;;1.90;1.00;;;;;;;;;;4964607;28;20448;-62
2022/05/16 13:14:12;;;;;;;1.45;0.90;;;;;;;;;;4950126;28;20409;-63
2022/05/16 13:16:41;;;;;;;2.13;0.93;;;;;;;;;;4949981;28;20085;-62
2022/05/16 13:19:14;;;;;;;0.65;0.60;;;;;;;;;;4965304;28;20026;-62
2022/05/16 13:22:01;;;;;;;0.90;0.73;;;;;;;;;;4965212;28;20333;-62
2022/05/16 13:24:27;;;;;;;1.77;0.90;;;;;;;;;;4949622;28;20432;-62
2022/05/16 13:29:41;;;;;;;1.67;0.90;;;;;;;;;;4950521;28;20478;-62
2022/05/16 13:32:14;;;;;;;1.02;0.77;;;;;;;;;;4949749;28;20448;-62
2022/05/16 13:34:46;;;;;;;1.20;0.70;;;;;;;;;;4949646;28;20428;-62
2022/05/16 13:37:13;;;;;;;1.00;0.77;;;;;;;;;;4949992;28;20388;-62
2022/05/16 13:39:44;;;;;;;1.25;0.68;;;;;;;;;;4964491;28;20030;-62
2022/05/16 13:42:10;;;;;;;4.50;1.10;;;;;;;;;;4949354;28;20456;-61
2022/05/16 13:44:38;;;;;;;1.25;0.80;;;;;;;;;;4950095;28;20435;-62
2022/05/16 13:47:05;;;;;;;2.78;0.80;;;;;;;;;;4948087;28;20411;-62
2022/05/16 13:49:32;;;;;;;3.85;1.10;;;;;;;;;;4949625;28;20431;-63
2022/05/16 13:51:58;;;;;;;2.42;1.05;;;;;;;;;;4949868;28;20357;-62
2022/05/16 13:54:30;;;;;;;1.48;0.70;;;;;;;;;;4949315;28;20404;-62
2022/05/16 13:57:07;;;;;;;1.90;1.00;;;;;;;;;;4949890;28;20310;-63
2022/05/16 13:59:35;;;;;;;1.17;0.77;;;;;;;;;;4964247;28;20463;-62
2022/05/16 14:02:08;;;;;;;3.40;1.17;;;;;;;;;;4950365;28;20466;-62
2022/05/16 14:04:55;;;;;;;1.38;1.00;;;;;;;;;;4963980;28;20503;-63
2022/05/16 14:07:28;;;;;;;1.73;1.10;;;;;;;;;;4949050;28;20384;-63
2022/05/16 14:10:03;;;;;;;1.90;1.10;;;;;;;;;;4962827;28;20434;-62
2022/05/16 14:12:33;;;;;;;2.00;0.77;;;;;;;;;;4962527;28;20405;-63
2022/05/16 14:14:59;;;;;;;0.95;0.47;;;;;;;;;;4949641;28;20440;-62
2022/05/16 14:17:40;;;;;;;2.22;1.02;;;;;;;;;;4949430;28;20030;-62
2022/05/16 14:20:19;;;;;;;1.17;0.75;;;;;;;;;;4947995;28;20341;-63
2022/05/16 14:22:48;;;;;;;;;;;;;;;;;;4947569;28;20384;-63
2022/05/16 14:25:27;;;;;;;1.05;0.70;;;;;;;;;;4949405;28;19917;-62
2022/05/16 14:27:59;;;;;;;1.38;0.75;;;;;;;;;;4947189;28;20416;-62
2022/05/16 14:30:26;;;;;;;1.13;0.65;;;;;;;;;;4948149;28;20477;-62
2022/05/16 14:33:19;;;;;;;1.58;0.70;;;;;;;;;;4947412;28;20337;-63
2022/05/16 14:36:05;;;;;;;2.33;0.80;;;;;;;;;;4947086;28;20472;-63
2022/05/16 14:38:47;;;;;;;1.65;0.90;;;;;;;;;;4963140;28;20033;-62
2022/05/16 14:41:23;;;;;;;1.42;0.85;;;;;;;;;;4966117;28;20034;-62
2022/05/16 14:44:06;;;;;;;4.60;1.00;;;;;;;;;;4968328;28;20379;-62
2022/05/16 14:46:43;;;;;;;3.97;0.80;;;;;;;;;;4967645;28;20448;-61
2022/05/16 14:49:10;;;;;;;36.20;19.42;;;;;;;;;;4967588;28;20459;-64
2022/05/16 14:51:38;;;;;;;16.02;8.25;;;;;;;;;;4967713;28;20453;-62
2022/05/16 14:54:22;;;;;;;72.15;42.22;;;;;;;;;;4971245;28;20368;-63
2022/05/16 14:56:47;;;;;;;147.50;93.57;;;;;;;;;;4965993;28;20404;-64
2022/05/16 14:59:12;;;;;;;108.47;69.95;;;;;;;;;;4932738;28;20030;-62
2022/05/16 15:04:22;;;;;;;111.53;71.20;;;;;;;;;;4933706;28;20060;-64
2022/05/16 15:06:47;;;;;;;94.75;51.83;;;;;;;;;;4933251;28;20410;-63
2022/05/16 15:09:15;;;;;;;61.20;37.80;;;;;;;;;;4931421;28;20049;-62
2022/05/16 15:11:46;;;;;;;50.88;31.75;;;;;;;;;;4934707;28;20378;-63
2022/05/16 15:14:12;;;;;;;49.58;28.58;;;;;;;;;;4953972;28;20442;-61
2022/05/16 15:16:39;;;;;;;110.05;67.28;;;;;;;;;;4972337;28;20367;-62
2022/05/16 15:19:07;;;;;;;115.80;65.13;;;;;;;;;;4972074;28;20462;-64
2022/05/16 15:21:33;;;;;;;122.88;65.90;;;;;;;;;;4969324;28;20373;-63
2022/05/16 15:23:59;;;;;;;130.30;76.53;;;;;;;;;;4969149;28;20025;-63
2022/05/16 15:26:24;;;;;;;100.85;61.67;;;;;;;;;;4970029;28;20413;-62
2022/05/16 15:28:49;;;;;;;94.05;54.53;;;;;;;;;;4971959;28;20555;-63
2022/05/16 15:31:15;;;;;;;77.90;48.85;;;;;;;;;;4970720;28;20029;-63
2022/05/16 15:33:40;;;;;;;73.75;45.00;;;;;;;;;;4971542;28;20452;-63
2022/05/16 15:36:06;;;;;;;68.68;41.08;;;;;;;;;;4971675;28;20491;-63
2022/05/16 15:38:32;;;;;;;67.40;41.45;;;;;;;;;;4971471;28;20583;-62
2022/05/16 15:40:58;;;;;;;60.40;38.30;;;;;;;;;;4973494;28;20052;-63
2022/05/16 15:43:26;;;;;;;62.65;37.90;;;;;;;;;;4971245;28;20321;-63